You are not logged in, Click here to log in
機場資訊:RCNN Welcome to Taiwan Airways 台灣虛擬航空
ICAO: RCNN Country: 中華民國臺南市南區及仁德區
Latitude: 22.9496 Longitude: 120.205
Total Arrivals: 16 Total Departures: 28
Latest Arrival: VJ858 (VVTS-RCNN)Gudetama. Chen Latest Departure: VJ0859 (RCNN-VVTS)Gudetama. Chen
Scenery:
METAR : RCNN 141800Z 07002KT 9999 FEW012 SCT050 23/17 Q1016 RMK A3002

臺南機場TNN